Time;durP1;ratioP1;P1;durP2;ratioP2;P2;SDS_P1;SDS_P2;PMS_P1;PMS_P2;Temp;Humidity;BMP_temperature;BMP_pressure;BME280_temperature;BME280_humidity;BME280_pressure;Samples;Min_cycle;Max_cycle;Signal;HPM_P1;HPM_P2
2022/05/07 00:00:59;;;;;;;20.05;16.02;;;;;;;13.68;97.75;102256.81;5027931;28;20841;-48
2022/05/07 00:03:27;;;;;;;20.17;16.17;;;;;;;13.66;97.66;102248.13;5031967;28;20555;-51
2022/05/07 00:05:56;;;;;;;17.80;15.68;;;;;;;13.74;96.87;102250.34;5031966;28;20052;-48
2022/05/07 00:08:24;;;;;;;18.50;16.52;;;;;;;13.74;97.04;102255.63;5031146;28;20120;-47
2022/05/07 00:10:53;;;;;;;17.73;15.50;;;;;;;13.59;97.91;102246.75;5027735;28;20134;-51
2022/05/07 00:13:21;;;;;;;19.08;15.95;;;;;;;13.58;97.92;102253.00;5030475;28;20044;-53
2022/05/07 00:18:33;;;;;;;19.15;17.15;;;;;;;13.53;99.67;102247.09;5032005;28;20054;-51
2022/05/07 00:21:01;;;;;;;19.20;17.15;;;;;;;13.49;100.00;102254.34;5031989;28;20041;-51
2022/05/07 00:23:30;;;;;;;20.00;17.50;;;;;;;13.48;100.00;102250.03;5031973;28;20051;-51
2022/05/07 00:25:59;;;;;;;19.88;17.75;;;;;;;13.49;100.00;102251.69;5031877;28;20049;-51
2022/05/07 00:28:27;;;;;;;18.70;16.70;;;;;;;13.45;100.00;102250.16;5031866;28;20570;-51
2022/05/07 00:30:56;;;;;;;19.65;16.67;;;;;;;13.40;100.00;102244.28;5030545;28;20113;-52
2022/05/07 00:33:24;;;;;;;18.20;16.30;;;;;;;13.49;100.00;102235.00;5031865;28;20045;-49
2022/05/07 00:35:54;;;;;;;19.88;17.13;;;;;;;13.57;100.00;102239.88;5031637;28;20050;-48
2022/05/07 00:38:22;;;;;;;17.92;16.02;;;;;;;13.46;100.00;102233.38;5031221;28;20064;-50
2022/05/07 00:40:50;;;;;;;18.20;16.17;;;;;;;13.48;100.00;102234.16;5031098;28;20045;-49
2022/05/07 00:43:19;;;;;;;18.75;16.38;;;;;;;13.50;100.00;102232.28;5028058;28;20045;-47
2022/05/07 00:45:48;;;;;;;18.73;16.42;;;;;;;13.53;100.00;102233.91;5028591;28;20437;-50
2022/05/07 00:48:17;;;;;;;18.23;16.27;;;;;;;13.57;100.00;102231.94;5029869;28;20053;-53
2022/05/07 00:53:34;;;;;;;19.83;16.33;;;;;;;13.36;100.00;102234.81;5030728;28;20068;-49
2022/05/07 00:56:03;;;;;;;18.10;15.95;;;;;;;13.32;100.00;102228.84;5027403;28;20042;-52
2022/05/07 00:58:31;;;;;;;18.15;16.13;;;;;;;13.31;100.00;102232.41;5033132;28;20045;-48
2022/05/07 01:01:00;;;;;;;19.33;16.20;;;;;;;13.27;100.00;102230.03;5035496;28;20049;-49
2022/05/07 01:03:28;;;;;;;19.05;15.95;;;;;;;13.33;100.00;102225.25;5035655;28;20045;-48
2022/05/07 01:05:57;;;;;;;18.02;16.13;;;;;;;13.31;100.00;102228.91;5031363;28;20056;-50
2022/05/07 01:08:26;;;;;;;17.80;16.00;;;;;;;13.23;100.00;102224.03;5032123;28;20171;-46
2022/05/07 01:10:57;;;;;;;17.17;15.27;;;;;;;13.19;100.00;102226.00;5035623;28;20507;-48
2022/05/07 01:13:26;;;;;;;17.33;15.55;;;;;;;13.30;100.00;102222.75;5035725;28;20049;-49
2022/05/07 01:15:56;;;;;;;17.75;15.60;;;;;;;13.26;100.00;102217.75;5035386;28;20041;-49
2022/05/07 01:18:25;;;;;;;17.55;15.02;;;;;;;13.29;100.00;102218.44;5035331;28;20077;-52
2022/05/07 01:20:57;;;;;;;19.35;14.98;;;;;;;13.30;100.00;102216.63;5035416;28;20046;-49
2022/05/07 01:23:28;;;;;;;17.33;14.23;;;;;;;13.25;100.00;102216.91;5035213;28;20049;-48
2022/05/07 01:25:59;;;;;;;16.10;14.27;;;;;;;13.24;100.00;102215.19;5035338;28;20049;-47
2022/05/07 01:28:28;;;;;;;17.10;13.98;;;;;;;13.16;100.00;102215.59;5035271;28;20088;-47
2022/05/07 01:30:57;;;;;;;15.20;13.07;;;;;;;13.13;100.00;102212.25;5035485;28;20036;-49
2022/05/07 01:33:25;;;;;;;14.95;13.18;;;;;;;13.25;100.00;102208.09;5034744;28;20057;-51
2022/05/07 01:35:53;;;;;;;19.67;13.77;;;;;;;13.21;100.00;102215.38;5029926;28;20500;-48
2022/05/07 01:38:22;;;;;;;16.58;13.25;;;;;;;13.16;100.00;102209.47;5032945;28;20046;-51
2022/05/07 01:40:51;;;;;;;16.75;13.38;;;;;;;13.05;100.00;102211.81;5035126;28;20137;-52
2022/05/07 01:43:20;;;;;;;14.45;12.32;;;;;;;13.10;100.00;102209.78;5031835;28;20584;-45
2022/05/07 01:45:48;;;;;;;15.30;12.77;;;;;;;13.08;100.00;102201.13;5030220;28;20049;-49
2022/05/07 01:48:15;;;;;;;18.02;13.77;;;;;;;13.07;100.00;102204.69;5034938;28;20045;-50
2022/05/07 01:50:43;;;;;;;15.93;13.90;;;;;;;13.08;100.00;102207.25;5034833;28;20099;-46
2022/05/07 01:53:14;;;;;;;15.55;13.02;;;;;;;13.00;100.00;102204.16;5034862;28;20045;-49
2022/05/07 01:55:43;;;;;;;14.68;13.07;;;;;;;12.92;100.00;102204.56;5032347;28;20037;-51
2022/05/07 01:58:13;;;;;;;17.67;14.07;;;;;;;12.87;100.00;102205.75;5030896;28;20053;-47
2022/05/07 02:00:42;;;;;;;15.40;13.05;;;;;;;12.88;100.00;102208.31;5033689;28;20558;-47
2022/05/07 02:03:10;;;;;;;15.18;13.57;;;;;;;12.94;100.00;102205.34;5030948;28;20077;-49
2022/05/07 02:05:39;;;;;;;15.88;13.35;;;;;;;12.89;100.00;102201.25;5032756;28;20045;-51
2022/05/07 02:08:07;;;;;;;17.02;13.68;;;;;;;12.99;100.00;102195.41;5031451;28;20056;-47
2022/05/07 02:10:36;;;;;;;16.27;13.88;;;;;;;12.98;100.00;102193.69;5030607;28;20940;-49
2022/05/07 02:13:04;;;;;;;17.20;14.65;;;;;;;12.91;100.00;102191.44;5033648;28;20736;-48
2022/05/07 02:15:35;;;;;;;17.38;13.93;;;;;;;12.79;100.00;102198.25;5034204;28;20053;-49
2022/05/07 02:18:03;;;;;;;16.25;14.52;;;;;;;12.79;100.00;102193.81;5034528;28;20116;-46
2022/05/07 02:20:32;;;;;;;18.65;14.68;;;;;;;12.75;100.00;102191.41;5034152;28;20073;-49
2022/05/07 02:23:00;;;;;;;17.10;15.25;;;;;;;12.70;100.00;102190.81;5034417;28;20415;-46
2022/05/07 02:25:28;;;;;;;16.92;14.05;;;;;;;12.68;100.00;102189.09;5033908;28;20049;-50
2022/05/07 02:27:57;;;;;;;17.80;14.20;;;;;;;12.65;100.00;102191.91;5032680;28;20049;-48
2022/05/07 02:30:25;;;;;;;16.65;14.30;;;;;;;12.57;100.00;102191.47;5029727;28;20065;-50
2022/05/07 02:32:55;;;;;;;16.92;14.55;;;;;;;12.61;100.00;102195.66;5031304;28;20064;-50
2022/05/07 02:35:23;;;;;;;16.08;14.35;;;;;;;12.63;100.00;102192.91;5034346;28;20096;-47
2022/05/07 02:37:51;;;;;;;17.50;15.23;;;;;;;12.61;100.00;102200.94;5033972;28;20061;-45
2022/05/07 02:40:20;;;;;;;15.95;14.15;;;;;;;12.57;100.00;102190.59;5033871;28;20049;-49
2022/05/07 02:42:47;;;;;;;17.40;14.52;;;;;;;12.58;100.00;102187.88;5033797;28;20476;-45
2022/05/07 02:45:16;;;;;;;18.40;14.90;;;;;;;12.60;100.00;102179.91;5033925;28;20428;-49
2022/05/07 02:47:44;;;;;;;16.52;14.00;;;;;;;12.53;100.00;102182.00;5033761;28;20049;-46
2022/05/07 02:50:14;;;;;;;16.80;13.55;;;;;;;12.59;100.00;102178.19;5033746;28;20065;-46
2022/05/07 02:52:43;;;;;;;15.43;13.70;;;;;;;12.61;100.00;102178.94;5033805;28;20041;-46
2022/05/07 02:55:11;;;;;;;17.20;14.38;;;;;;;12.57;100.00;102177.41;5033569;28;20058;-48
2022/05/07 02:57:39;;;;;;;16.63;14.38;;;;;;;12.58;100.00;102179.09;5033336;28;20128;-45
2022/05/07 03:00:09;;;;;;;19.42;13.55;;;;;;;12.55;100.00;102185.41;5031954;28;20141;-52
2022/05/07 03:02:37;;;;;;;15.25;12.68;;;;;;;12.47;100.00;102182.31;5033460;28;20054;-51
2022/05/07 03:05:07;;;;;;;17.30;13.30;;;;;;;12.49;100.00;102176.03;5028355;28;20057;-53
2022/05/07 03:07:36;;;;;;;15.43;13.13;;;;;;;12.45;100.00;102181.56;5030196;28;20477;-50
2022/05/07 03:10:05;;;;;;;18.42;13.88;;;;;;;12.44;100.00;102178.03;5033384;28;20424;-48
2022/05/07 03:12:34;;;;;;;15.70;13.20;;;;;;;12.44;100.00;102183.31;5033207;28;20049;-48
2022/05/07 03:15:02;;;;;;;16.90;13.90;;;;;;;12.42;100.00;102174.63;5033231;28;20046;-50
2022/05/07 03:17:34;;;;;;;16.58;13.88;;;;;;;12.40;100.00;102175.66;5033483;28;20053;-50
2022/05/07 03:20:08;;;;;;;17.35;13.73;;;;;;;12.40;100.00;102173.00;5032347;28;20521;-48
2022/05/07 03:22:38;;;;;;;17.90;13.90;;;;;;;12.39;100.00;102174.78;5033080;28;20088;-54
2022/05/07 03:25:08;;;;;;;16.75;13.45;;;;;;;12.39;100.00;102176.56;5032628;28;20053;-47
2022/05/07 03:27:36;;;;;;;15.38;12.23;;;;;;;12.43;100.00;102178.13;5030562;28;20053;-49
2022/05/07 03:30:06;;;;;;;17.65;13.27;;;;;;;12.41;100.00;102175.56;5028812;28;20489;-50
2022/05/07 03:32:35;;;;;;;14.80;12.20;;;;;;;12.52;100.00;102181.13;5032789;28;20038;-49
2022/05/07 03:35:04;;;;;;;17.08;12.95;;;;;;;12.48;100.00;102179.59;5032805;28;20068;-51
2022/05/07 03:37:32;;;;;;;18.80;12.93;;;;;;;12.46;100.00;102172.69;5031244;28;20049;-49
2022/05/07 03:40:02;;;;;;;14.65;12.75;;;;;;;12.45;100.00;102169.19;5028883;28;20053;-48
2022/05/07 03:42:33;;;;;;;16.35;13.45;;;;;;;12.45;100.00;102176.28;5031882;28;20095;-48
2022/05/07 03:45:02;;;;;;;16.20;14.00;;;;;;;12.41;100.00;102172.09;5032539;28;20440;-49
2022/05/07 03:47:30;;;;;;;16.63;13.32;;;;;;;12.40;100.00;102173.84;5032622;28;20045;-47
2022/05/07 03:49:58;;;;;;;14.82;12.73;;;;;;;12.47;100.00;102169.13;5032405;28;20140;-50
2022/05/07 03:55:16;;;;;;;15.63;13.13;;;;;;;12.40;100.00;102173.00;5032503;28;20054;-49
2022/05/07 03:57:44;;;;;;;19.95;14.70;;;;;;;12.35;100.00;102170.59;5033127;28;20045;-50
2022/05/07 04:00:13;;;;;;;16.55;13.98;;;;;;;12.29;100.00;102173.56;5032277;28;20049;-49
2022/05/07 04:02:41;;;;;;;18.50;15.00;;;;;;;12.34;100.00;102163.63;5032464;28;20136;-50
2022/05/07 04:05:10;;;;;;;18.75;14.88;;;;;;;12.35;100.00;102170.59;5032187;28;20064;-48
2022/05/07 04:07:38;;;;;;;17.23;13.82;;;;;;;12.27;100.00;102170.13;5028685;28;20149;-50
2022/05/07 04:10:07;;;;;;;16.50;14.30;;;;;;;12.31;100.00;102171.69;5027692;28;20049;-48
2022/05/07 04:12:37;;;;;;;17.65;15.05;;;;;;;12.30;100.00;102164.72;5031793;28;20049;-50
2022/05/07 04:15:07;;;;;;;16.80;14.43;;;;;;;12.29;100.00;102170.94;5031644;28;20045;-51
2022/05/07 04:17:36;;;;;;;17.98;14.05;;;;;;;12.27;100.00;102164.84;5031714;28;20128;-52
2022/05/07 04:20:05;;;;;;;16.25;13.70;;;;;;;12.26;100.00;102174.56;5026989;28;20077;-49
2022/05/07 04:22:34;;;;;;;19.08;15.80;;;;;;;12.22;100.00;102167.75;5028532;28;20517;-46
2022/05/07 04:25:02;;;;;;;17.13;14.80;;;;;;;12.31;100.00;102179.59;5031886;28;20151;-46
2022/05/07 04:27:30;;;;;;;17.73;15.05;;;;;;;12.29;100.00;102173.56;5030169;28;20049;-51
2022/05/07 04:30:00;;;;;;;20.80;15.88;;;;;;;12.27;100.00;102165.72;5027853;28;20045;-49
2022/05/07 04:32:29;;;;;;;18.70;15.85;;;;;;;12.32;100.00;102176.91;5030643;28;20502;-45
2022/05/07 04:34:58;;;;;;;20.60;15.77;;;;;;;12.32;100.00;102169.00;5031975;28;20396;-50
2022/05/07 04:37:26;;;;;;;18.88;15.65;;;;;;;12.38;100.00;102178.38;5031752;28;20052;-49
2022/05/07 04:39:55;;;;;;;20.90;17.08;;;;;;;12.38;100.00;102178.38;5030032;28;20088;-49
2022/05/07 04:42:23;;;;;;;18.85;16.40;;;;;;;12.37;100.00;102174.03;5028252;28;20042;-48
2022/05/07 04:44:52;;;;;;;18.40;16.40;;;;;;;12.39;100.00;102174.78;5030836;28;20037;-49
2022/05/07 04:47:21;;;;;;;19.15;16.48;;;;;;;12.41;100.00;102185.28;5031966;28;20053;-49
2022/05/07 04:49:50;;;;;;;20.98;16.60;;;;;;;12.38;100.00;102185.41;5030950;28;20049;-50
2022/05/07 04:52:18;;;;;;;24.02;18.38;;;;;;;12.41;100.00;102187.91;5026885;28;20045;-50
2022/05/07 04:54:46;;;;;;;21.63;17.63;;;;;;;12.44;100.00;102193.88;5030340;28;20049;-51
2022/05/07 04:57:17;;;;;;;20.63;17.27;;;;;;;12.46;100.00;102185.88;5031941;28;20049;-49
2022/05/07 04:59:45;;;;;;;22.63;17.33;;;;;;;12.52;100.00;102188.19;5031328;28;20057;-51
2022/05/07 05:02:14;;;;;;;22.05;18.50;;;;;;;12.51;100.00;102189.13;5031520;28;20088;-47
2022/05/07 05:04:43;;;;;;;21.77;17.80;;;;;;;12.52;100.00;102191.69;5031531;28;20064;-47
2022/05/07 05:07:12;;;;;;;24.27;18.52;;;;;;;12.54;100.00;102190.75;5030837;28;20412;-51
2022/05/07 05:09:40;;;;;;;23.33;18.95;;;;;;;12.53;100.00;102189.91;5031634;28;20049;-47
2022/05/07 05:12:09;;;;;;;25.40;20.25;;;;;;;12.58;100.00;102194.94;5031373;28;20057;-49
2022/05/07 05:17:23;;;;;;;25.02;19.55;;;;;;;12.67;100.00;102207.66;5029002;28;20471;-52
2022/05/07 05:19:53;;;;;;;24.25;18.55;;;;;;;12.76;100.00;102203.69;5029142;28;20554;-49
2022/05/07 05:22:22;;;;;;;24.17;20.60;;;;;;;12.79;100.00;102209.66;5026182;28;20053;-50
2022/05/07 05:24:50;;;;;;;25.95;19.20;;;;;;;12.84;100.00;102206.75;5030306;28;20049;-49
2022/05/07 05:27:18;;;;;;;24.52;19.50;;;;;;;12.93;100.00;102210.72;5027679;28;20049;-50
2022/05/07 05:29:47;;;;;;;22.67;19.05;;;;;;;12.98;100.00;102203.41;5028738;28;20048;-49
2022/05/07 05:32:18;;;;;;;26.88;20.67;;;;;;;13.01;100.00;102214.63;5031347;28;20041;-51
2022/05/07 05:34:47;;;;;;;27.08;21.83;;;;;;;13.06;100.00;102218.81;5031339;28;20053;-49
2022/05/07 05:37:17;;;;;;;27.50;22.23;;;;;;;13.10;100.00;102213.31;5024367;28;20049;-51
2022/05/07 05:39:46;;;;;;;30.08;22.70;;;;;;;13.18;100.00;102220.78;5028368;28;20069;-52
2022/05/07 05:42:16;;;;;;;28.20;22.48;;;;;;;13.26;100.00;102221.22;5029835;28;20092;-51
2022/05/07 05:44:44;;;;;;;30.13;24.90;;;;;;;13.30;100.00;102225.41;5030727;28;20115;-50
2022/05/07 05:47:12;;;;;;;29.65;23.60;;;;;;;13.35;100.00;102223.41;5033693;28;20079;-50
2022/05/07 05:49:41;;;;;;;32.58;26.60;;;;;;;13.42;100.00;102226.56;5034851;28;20045;-51
2022/05/07 05:52:10;;;;;;;34.67;26.67;;;;;;;13.49;100.00;102222.63;5034453;28;20045;-53
2022/05/07 05:54:40;;;;;;;34.60;27.67;;;;;;;13.55;100.00;102229.34;5034231;28;20069;-49
2022/05/07 05:57:14;;;;;;;34.72;27.63;;;;;;;13.61;100.00;102225.56;5034819;28;20519;-51
2022/05/07 05:59:43;;;;;;;35.75;29.00;;;;;;;13.67;100.00;102230.47;5031527;28;20060;-52
2022/05/07 06:02:11;;;;;;;35.88;28.40;;;;;;;13.74;100.00;102237.13;5029555;28;20804;-49
2022/05/07 06:04:39;;;;;;;32.90;28.17;;;;;;;13.82;100.00;102236.69;5034418;28;20050;-51
2022/05/07 06:07:08;;;;;;;36.08;27.85;;;;;;;13.87;100.00;102242.56;5034367;28;20045;-52
2022/05/07 06:09:36;;;;;;;36.65;28.60;;;;;;;13.94;100.00;102229.84;5034461;28;20125;-50
2022/05/07 06:12:07;;;;;;;35.45;29.05;;;;;;;14.04;100.00;102241.59;5034113;28;20049;-48
2022/05/07 06:14:35;;;;;;;34.92;28.10;;;;;;;14.12;100.00;102243.81;5031264;28;20049;-50
2022/05/07 06:17:03;;;;;;;34.47;27.13;;;;;;;14.20;100.00;102237.13;5029803;28;20041;-49
2022/05/07 06:19:32;;;;;;;33.03;26.35;;;;;;;14.28;100.00;102249.91;5034196;28;20107;-49
2022/05/07 06:22:00;;;;;;;33.38;26.67;;;;;;;14.35;100.00;102245.94;5034091;28;20639;-51
2022/05/07 06:27:32;;;;;;;31.05;25.17;;;;;;;14.50;100.00;102241.53;5033842;28;20172;-50
2022/05/07 06:30:01;;;;;;;30.45;24.52;;;;;;;14.54;100.00;102247.50;5033908;28;20369;-52
2022/05/07 06:32:34;;;;;;;28.85;23.00;;;;;;;14.62;100.00;102245.25;5034149;28;20084;-51
2022/05/07 06:35:04;;;;;;;28.52;22.67;;;;;;;14.70;100.00;102250.97;5033854;28;20045;-48
2022/05/07 06:37:33;;;;;;;28.48;22.42;;;;;;;14.77;100.00;102251.44;5033801;28;20115;-48
2022/05/07 06:40:03;;;;;;;28.00;21.55;;;;;;;14.87;100.00;102251.75;5033723;28;20049;-49
2022/05/07 06:42:35;;;;;;;28.92;21.90;;;;;;;14.97;99.32;102252.88;5033759;28;20054;-51
2022/05/07 06:45:04;;;;;;;27.08;20.98;;;;;;;15.08;99.03;102254.88;5031763;28;20446;-49
2022/05/07 06:47:33;;;;;;;27.33;18.88;;;;;;;15.17;95.83;102253.44;5030293;28;20071;-51
2022/05/07 06:50:01;;;;;;;24.17;18.13;;;;;;;15.29;95.92;102257.97;5032230;28;20121;-49
2022/05/07 06:52:31;;;;;;;23.17;18.35;;;;;;;15.43;93.87;102258.91;5033382;28;20056;-51
2022/05/07 06:54:59;;;;;;;22.55;16.83;;;;;;;15.57;90.44;102244.75;5032495;28;20053;-48
2022/05/07 06:57:27;;;;;;;21.95;16.40;;;;;;;15.67;89.07;102253.84;5033397;28;20098;-49
2022/05/07 06:59:57;;;;;;;23.00;16.00;;;;;;;15.79;88.15;102254.81;5033226;28;20053;-48
2022/05/07 07:02:26;;;;;;;20.80;14.93;;;;;;;15.90;87.15;102252.38;5030136;28;20079;-49
2022/05/07 07:04:56;;;;;;;22.52;14.65;;;;;;;16.03;86.56;102258.59;5029617;28;20077;-51
2022/05/07 07:07:25;;;;;;;19.88;14.02;;;;;;;16.14;84.50;102252.56;5033472;28;20053;-49
2022/05/07 07:09:53;;;;;;;23.33;14.55;;;;;;;16.27;83.07;102257.06;5033477;28;20081;-48
2022/05/07 07:12:22;;;;;;;22.25;14.18;;;;;;;16.43;83.77;102254.19;5033393;28;20516;-47
2022/05/07 07:15:04;;;;;;;24.52;14.85;;;;;;;16.61;80.66;102247.63;5033181;28;20550;-46
2022/05/07 07:17:32;;;;;;;21.90;14.95;;;;;;;16.78;80.65;102254.44;5033376;28;20050;-49
2022/05/07 07:20:01;;;;;;;20.48;13.70;;;;;;;16.93;79.24;102244.56;5032918;28;20059;-52
2022/05/07 07:22:30;;;;;;;18.92;13.55;;;;;;;17.07;77.57;102248.94;5033108;28;20049;-53
2022/05/07 07:24:58;;;;;;;17.98;12.77;;;;;;;17.27;78.66;102244.00;5030573;28;20054;-49
2022/05/07 07:27:27;;;;;;;18.52;12.63;;;;;;;17.46;76.63;102248.84;5028474;28;20041;-49
2022/05/07 07:29:55;;;;;;;17.48;12.23;;;;;;;17.64;75.04;102249.31;5031748;28;20057;-52
2022/05/07 07:32:26;;;;;;;18.17;12.50;;;;;;;17.85;75.48;102249.56;5033027;28;20045;-52
2022/05/07 07:34:55;;;;;;;18.48;13.35;;;;;;;18.06;75.06;102248.00;5031200;28;20049;-52
2022/05/07 07:37:23;;;;;;;19.42;13.13;;;;;;;18.24;74.27;102250.22;5027522;28;20129;-48
2022/05/07 07:39:52;;;;;;;19.17;13.68;;;;;;;18.37;73.48;102250.97;5031032;28;20045;-51
2022/05/07 07:42:23;;;;;;;19.92;14.07;;;;;;;18.54;73.47;102256.81;5029252;28;20152;-48
2022/05/07 07:47:56;;;;;;;22.70;14.02;;;;;;;18.69;73.19;102246.81;5029581;28;20489;-53
2022/05/07 07:50:31;;;;;;;21.50;14.93;;;;;;;19.09;70.79;102260.56;5032594;28;20073;-52
2022/05/07 07:53:00;;;;;;;19.95;14.20;;;;;;;19.28;69.73;102259.09;5031988;28;20092;-51
2022/05/07 07:55:29;;;;;;;24.13;14.93;;;;;;;19.43;70.06;102257.00;5030747;28;20417;-47
2022/05/07 07:57:59;;;;;;;19.40;14.60;;;;;;;19.51;69.22;102267.03;5027915;28;20095;-47
2022/05/07 08:00:29;;;;;;;26.25;15.43;;;;;;;19.57;67.19;102266.56;5030316;28;20064;-47
2022/05/07 08:03:03;;;;;;;20.00;14.45;;;;;;;19.69;67.46;102262.06;5031909;28;20099;-50
2022/05/07 08:05:34;;;;;;;22.42;15.45;;;;;;;19.81;67.82;102261.06;5031579;28;20152;-49
2022/05/07 08:13:37;;;;;;;22.83;15.63;;;;;;;19.85;66.84;102264.31;5028513;28;20568;-49
2022/05/07 08:16:07;;;;;;;20.80;14.90;;;;;;;19.96;66.73;102263.44;5030801;28;20041;-48
2022/05/07 08:18:38;;;;;;;24.00;15.32;;;;;;;20.02;65.91;102261.09;5030137;28;20053;-48
2022/05/07 08:21:07;;;;;;;23.35;15.52;;;;;;;20.07;65.73;102260.75;5025747;28;20052;-48
2022/05/07 08:23:36;;;;;;;23.10;16.00;;;;;;;20.16;64.67;102256.44;5030529;28;20107;-47
2022/05/07 08:26:06;;;;;;;21.42;14.77;;;;;;;20.41;65.51;102256.06;5031380;28;20041;-51
2022/05/07 08:28:35;;;;;;;19.75;13.60;;;;;;;20.68;65.16;102260.06;5026258;28;20064;-50
2022/05/07 08:31:04;;;;;;;22.05;14.55;;;;;;;20.83;62.86;102257.03;5028127;28;20054;-49
2022/05/07 08:33:33;;;;;;;25.73;15.32;;;;;;;20.94;60.63;102259.59;5031832;28;20050;-50
2022/05/07 08:36:03;;;;;;;18.60;12.50;;;;;;;21.04;61.49;102252.47;5025275;28;20111;-48
2022/05/07 08:38:31;;;;;;;20.73;14.38;;;;;;;21.17;62.13;102256.75;5026734;28;20103;-51
2022/05/07 08:41:01;;;;;;;18.45;13.32;;;;;;;21.24;61.54;102256.06;5031667;28;20457;-50
2022/05/07 08:43:33;;;;;;;21.25;14.05;;;;;;;21.37;61.36;102258.50;5031588;28;20140;-52
2022/05/07 08:46:01;;;;;;;21.77;14.27;;;;;;;21.38;59.11;102254.00;5031585;28;20124;-51
2022/05/07 08:48:30;;;;;;;21.63;14.32;;;;;;;21.55;59.90;102257.84;5030733;28;20060;-52
2022/05/07 08:50:58;;;;;;;23.20;14.65;;;;;;;21.71;58.21;102258.16;5025565;28;20144;-47
2022/05/07 08:53:30;;;;;;;20.30;13.48;;;;;;;21.77;57.61;102257.63;5027387;28;20529;-49
2022/05/07 08:55:58;;;;;;;21.70;12.82;;;;;;;22.10;56.41;102258.19;5031788;28;20049;-50
2022/05/07 08:58:26;;;;;;;22.77;11.85;;;;;;;22.12;54.99;102255.34;5031704;28;20050;-50
2022/05/07 09:00:55;;;;;;;21.63;12.48;;;;;;;22.00;54.14;102256.50;5031313;28;20144;-50
2022/05/07 09:03:24;;;;;;;20.45;12.23;;;;;;;21.81;54.24;102257.34;5031239;28;20046;-51
2022/05/07 09:05:52;;;;;;;18.35;10.27;;;;;;;22.10;55.48;102255.50;5031195;28;20100;-52
2022/05/07 09:08:26;;;;;;;19.02;10.00;;;;;;;22.50;54.71;102258.16;5031097;28;20076;-48
2022/05/07 09:10:56;;;;;;;17.52;9.65;;;;;;;22.66;51.06;102255.72;5031462;28;20145;-49
2022/05/07 09:13:24;;;;;;;16.02;8.65;;;;;;;22.94;50.15;102251.22;5031249;28;20059;-47
2022/05/07 09:15:55;;;;;;;16.48;8.73;;;;;;;23.33;49.39;102250.22;5031001;28;20466;-52
2022/05/07 09:18:25;;;;;;;17.13;8.77;;;;;;;23.59;49.13;102249.50;5033213;28;20046;-53
2022/05/07 09:21:23;;;;;;;16.45;9.50;;;;;;;23.76;49.38;102253.19;5028789;28;20045;-51
2022/05/07 09:24:05;;;;;;;16.58;8.60;;;;;;;23.80;48.66;102250.06;5033299;28;20049;-51
2022/05/07 09:26:39;;;;;;;16.67;9.05;;;;;;;23.96;47.81;102243.16;5034458;28;20136;-51
2022/05/07 09:29:10;;;;;;;17.50;10.15;;;;;;;24.04;47.06;102240.53;5029598;28;20788;-48
2022/05/07 09:31:41;;;;;;;13.38;8.57;;;;;;;24.13;46.70;102234.25;5031302;28;20054;-50
2022/05/07 09:37:00;;;;;;;14.88;9.38;;;;;;;24.01;47.59;102238.19;5035038;28;20095;-49
2022/05/07 09:39:33;;;;;;;14.77;8.43;;;;;;;24.38;47.67;102237.09;5035061;28;20128;-52
2022/05/07 09:42:03;;;;;;;;;;;;;;;24.75;46.63;102230.63;5032949;28;20412;-49
2022/05/07 09:44:32;;;;;;;16.30;9.18;;;;;;;24.88;46.31;102238.25;5030843;28;19925;-49
2022/05/07 09:47:01;;;;;;;18.77;8.88;;;;;;;24.92;45.90;102233.38;5033026;28;20045;-50
2022/05/07 09:49:33;;;;;;;15.30;8.60;;;;;;;25.10;46.58;102235.97;5034123;28;20045;-49
2022/05/07 09:52:04;;;;;;;18.23;9.55;;;;;;;25.21;44.58;102242.91;5028916;28;20455;-52
2022/05/07 09:57:33;;;;;;;15.00;8.52;;;;;;;25.49;43.89;102238.13;5013555;28;20045;-53
2022/05/07 10:00:07;;;;;;;17.50;8.50;;;;;;;25.83;43.47;102237.16;5033929;28;20062;-52
2022/05/07 10:03:05;;;;;;;16.33;8.43;;;;;;;26.13;44.01;102235.66;5032215;28;20049;-50
2022/05/07 10:06:01;;;;;;;16.42;7.82;;;;;;;26.06;41.85;102242.75;5028781;28;20055;-49
2022/05/07 10:08:42;;;;;;;14.18;7.68;;;;;;;26.08;41.51;102240.75;5030852;28;20112;-53
2022/05/07 10:11:13;;;;;;;15.68;8.27;;;;;;;26.05;42.44;102237.53;5034397;28;20111;-53
2022/05/07 10:13:53;;;;;;;84.10;12.20;;;;;;;26.01;40.97;102238.84;5033795;28;20041;-52
2022/05/07 10:16:22;;;;;;;14.25;8.27;;;;;;;25.76;42.03;102239.69;5048244;28;20459;-50
2022/05/07 10:18:51;;;;;;;14.88;9.05;;;;;;;25.95;41.92;102230.44;5034559;28;20044;-49
2022/05/07 10:21:19;;;;;;;15.13;7.85;;;;;;;26.38;42.24;102226.72;5047074;28;20077;-52
2022/05/07 10:23:53;;;;;;;17.75;9.02;;;;;;;26.58;40.48;102229.88;5066724;28;20352;-56
2022/05/07 10:26:24;;;;;;;14.95;8.35;;;;;;;26.61;40.51;102232.22;5071629;28;20136;-57
2022/05/07 10:28:53;;;;;;;15.57;8.82;;;;;;;26.97;40.02;102219.13;5099358;28;20041;-53
2022/05/07 10:31:23;;;;;;;15.20;8.50;;;;;;;26.87;38.88;102225.75;5053515;28;20091;-53
2022/05/07 10:33:53;;;;;;;16.33;9.25;;;;;;;26.39;39.94;102229.22;5053437;28;20511;-50
2022/05/07 10:36:21;;;;;;;13.65;8.75;;;;;;;26.42;38.66;102226.22;5053039;28;20081;-49
2022/05/07 10:38:50;;;;;;;13.40;9.13;;;;;;;26.53;39.64;102221.44;5053200;28;20056;-49
2022/05/07 10:41:26;;;;;;;14.82;9.07;;;;;;;26.68;38.60;102222.41;5054080;28;20049;-50
2022/05/07 10:44:06;;;;;;;13.73;8.82;;;;;;;26.93;39.01;102220.50;5053683;28;20562;-53
2022/05/07 10:46:39;;;;;;;13.52;8.30;;;;;;;26.93;38.39;102215.09;5058950;28;20483;-50
2022/05/07 10:49:08;;;;;;;17.40;9.15;;;;;;;26.41;37.77;102216.44;5073531;28;20048;-48
2022/05/07 10:51:38;;;;;;;14.93;8.93;;;;;;;26.40;37.92;102219.31;5072839;28;20446;-50
2022/05/07 10:54:19;;;;;;;17.33;8.57;;;;;;;26.27;38.13;102209.03;5072804;28;20118;-61
2022/05/07 10:56:49;;;;;;;15.48;8.55;;;;;;;26.47;39.15;102210.34;5068755;28;20504;-61
2022/05/07 10:59:20;;;;;;;28.40;9.63;;;;;;;26.47;39.38;102207.63;5071111;28;20036;-57
2022/05/07 11:01:49;;;;;;;17.73;8.95;;;;;;;26.06;38.84;102206.91;5072985;28;20056;-61
2022/05/07 11:04:19;;;;;;;14.38;8.07;;;;;;;26.07;39.95;102204.03;5072856;28;20150;-61
2022/05/07 11:06:49;;;;;;;16.98;8.82;;;;;;;26.06;39.32;102206.91;5067542;28;20147;-61
2022/05/07 11:09:19;;;;;;;14.70;8.98;;;;;;;26.41;39.24;102199.41;5069741;28;20044;-61
2022/05/07 11:11:49;;;;;;;15.05;7.95;;;;;;;26.09;38.90;102201.97;5070942;28;20135;-60
2022/05/07 11:14:24;;;;;;;14.68;8.70;;;;;;;25.94;39.47;102195.56;5059953;28;20044;-61
2022/05/07 11:16:52;;;;;;;14.38;8.80;;;;;;;25.80;39.55;102195.25;5065538;28;20154;-63
2022/05/07 11:19:26;;;;;;;15.82;8.50;;;;;;;25.64;40.35;102201.44;5071015;28;20044;-61
2022/05/07 11:21:55;;;;;;;17.30;9.10;;;;;;;25.48;41.78;102201.44;5071764;28;20060;-62
2022/05/07 11:24:25;;;;;;;14.95;8.85;;;;;;;25.70;41.27;102199.09;5056672;28;20403;-61
2022/05/07 11:26:55;;;;;;;14.27;8.02;;;;;;;25.75;40.94;102197.59;5064516;28;20227;-60
2022/05/07 11:29:25;;;;;;;14.18;8.10;;;;;;;25.81;41.51;102196.09;5061096;28;20152;-61
2022/05/07 11:31:59;;;;;;;15.95;8.93;;;;;;;25.62;40.20;102189.19;5048532;28;20052;-61
2022/05/07 11:34:32;;;;;;;18.20;9.00;;;;;;;25.75;40.90;102191.38;5052327;28;20103;-62
2022/05/07 11:37:14;;;;;;;13.15;7.57;;;;;;;26.11;40.71;102186.50;5050689;28;20092;-61
2022/05/07 11:39:53;;;;;;;12.73;7.60;;;;;;;26.00;40.92;102189.53;5052519;28;20362;-61
2022/05/07 11:42:29;;;;;;;15.57;7.80;;;;;;;25.53;41.18;102198.25;5051873;28;20752;-63
2022/05/07 11:48:13;;;;;;;17.38;8.05;;;;;;;25.38;41.93;102195.38;5053909;28;20048;-60
2022/05/07 11:50:50;;;;;;;14.35;8.20;;;;;;;25.42;42.47;102194.88;5070512;28;20106;-62